Los Angeles, CA (90001)

1:41 PM PST on February 09, 2016 (GMT -0800)
Victoria Ave Elementary | | Change Station
CLOSE
Current Station
Personal Weather Station
Location: South Gate, CA
Elevation: 125 ft
Nearby Weather Stations

Elev 125 ft 33.95 °N, 118.21 °W | Updated 11 seconds ago

Clear
Clear
91.3 °F
Feels Like 87 °F
N
2.0
Wind Variable Wind from North
Gusts 2.0 mph

Today
High -- | Low -- °F
--% Chance of Precip.
Yesterday
High -- | Low -- °F
Precip. -- in
Pressure 30.07 in
Visibility 10.0 miles
Clouds Clear
Heat Index 87 °F
Dew Point 22 °F
Humidity 8%
Rainfall 0.00 in
Snow Depth Not available.
6:43 AM 5:31 PM
New Moon, 2% visible
METAR KCQT 092047Z AUTO 00000KT 10SM CLR 31/M04 A3008 RMK AO2 SLP183 T03111044 58028
Pressure 30.07 in
Visibility 10.0 miles
Clouds Clear
Heat Index 87 °F
Dew Point 22 °F
Humidity 8%
Rainfall 0.00 in
Snow Depth Not available.
6:43 AM 5:31 PM
New Moon, 2% visible
METAR KCQT 092047Z AUTO 00000KT 10SM CLR 31/M04 A3008 RMK AO2 SLP183 T03111044 58028

10-Day Weather Forecast

Almanac

Astronomy

Feb. 09, 2016 Rise Set
Actual Time
Civil Twilight
Nautical Twilight
Astronomical Twilight
Moon
Length of Visible Light
Length of Day
Tomorrow will be .
, % of the Moon is Illuminated

Today's Extremes

State Highs State Lows

Community

WunderPhotos

Upload Photos

1,891,710 photos uploaded!

WunderBlog® & News

Nearby

Air Quality

  Air Quality AQ Index Pollutant
Not available.

Snow Depth

Station Depth Elevation

Earthquake Activity

City Distance Mag. Time & Date
Minimum magnitude displayed is 2.5.

Coastal Water Temperatures

Place Temperature

Stations

Nearby Weather Stations

Station Location Temp. Windchill Dew Point Humidity Wind Precip. Elev Updated Type
                   

Watches & Warnings

There are currently no watches in effect.